sensor_id;sensor_type;location;lat;lon;timestamp;P1;durP1;ratioP1;P2;durP2;ratioP2
58496;SDS011;44284;51.310;16.904;2022-11-11T15:09:33;8.90;;;3.08;;
58496;SDS011;44284;51.310;16.904;2022-11-11T15:11:40;6.60;;;3.47;;
58496;SDS011;44284;51.310;16.904;2022-11-11T15:19:26;10.43;;;4.70;;
58496;SDS011;44284;51.310;16.904;2022-11-11T15:37:17;10.85;;;4.88;;
58496;SDS011;44284;51.310;16.904;2022-11-11T15:39:45;9.38;;;4.80;;
58496;SDS011;44284;51.310;16.904;2022-11-11T15:42:17;10.07;;;4.93;;
58496;SDS011;44284;51.310;16.904;2022-11-11T15:44:43;8.40;;;4.75;;
58496;SDS011;44284;51.310;16.904;2022-11-11T15:47:11;10.45;;;4.90;;
58496;SDS011;44284;51.310;16.904;2022-11-11T15:52:23;8.20;;;4.93;;
58496;SDS011;44284;51.310;16.904;2022-11-11T15:54:50;8.65;;;4.75;;
58496;SDS011;44284;51.310;16.904;2022-11-11T15:57:20;8.95;;;4.95;;
58496;SDS011;44284;51.310;16.904;2022-11-11T15:59:48;8.82;;;5.00;;
58496;SDS011;44284;51.310;16.904;2022-11-11T16:02:22;11.75;;;5.63;;
58496;SDS011;44284;51.310;16.904;2022-11-11T16:04:56;8.80;;;5.40;;
58496;SDS011;44284;51.310;16.904;2022-11-11T16:07:24;13.00;;;6.32;;
58496;SDS011;44284;51.310;16.904;2022-11-11T16:09:52;16.67;;;8.63;;
58496;SDS011;44284;51.310;16.904;2022-11-11T16:12:23;14.35;;;8.30;;
58496;SDS011;44284;51.310;16.904;2022-11-11T16:14:51;15.35;;;8.85;;
58496;SDS011;44284;51.310;16.904;2022-11-11T16:17:18;16.92;;;8.65;;
58496;SDS011;44284;51.310;16.904;2022-11-11T16:19:44;15.35;;;8.02;;
58496;SDS011;44284;51.310;16.904;2022-11-11T16:22:15;14.35;;;8.00;;
58496;SDS011;44284;51.310;16.904;2022-11-11T16:24:43;14.82;;;8.90;;
58496;SDS011;44284;51.310;16.904;2022-11-11T16:27:11;15.32;;;9.20;;
58496;SDS011;44284;51.310;16.904;2022-11-11T16:29:40;16.88;;;7.95;;
58496;SDS011;44284;51.310;16.904;2022-11-11T16:32:30;10.77;;;7.32;;
58496;SDS011;44284;51.310;16.904;2022-11-11T16:34:57;15.10;;;8.10;;
58496;SDS011;44284;51.310;16.904;2022-11-11T16:37:23;15.10;;;7.78;;
58496;SDS011;44284;51.310;16.904;2022-11-11T16:39:49;14.85;;;7.75;;
58496;SDS011;44284;51.310;16.904;2022-11-11T16:47:59;12.57;;;7.20;;
58496;SDS011;44284;51.310;16.904;2022-11-11T16:50:04;13.90;;;7.32;;
58496;SDS011;44284;51.310;16.904;2022-11-11T16:52:41;18.95;;;7.95;;
58496;SDS011;44284;51.310;16.904;2022-11-11T16:55:10;12.95;;;7.45;;
58496;SDS011;44284;51.310;16.904;2022-11-11T16:57:42;16.52;;;7.15;;
58496;SDS011;44284;51.310;16.904;2022-11-11T17:00:11;13.43;;;6.82;;
58496;SDS011;44284;51.310;16.904;2022-11-11T17:02:38;15.05;;;7.72;;
58496;SDS011;44284;51.310;16.904;2022-11-11T17:05:04;12.30;;;7.80;;
58496;SDS011;44284;51.310;16.904;2022-11-11T17:10:09;13.02;;;7.38;;
58496;SDS011;44284;51.310;16.904;2022-11-11T17:12:36;11.93;;;7.15;;
58496;SDS011;44284;51.310;16.904;2022-11-11T17:15:03;13.70;;;8.02;;
58496;SDS011;44284;51.310;16.904;2022-11-11T17:17:29;12.43;;;7.38;;
58496;SDS011;44284;51.310;16.904;2022-11-11T17:19:55;14.95;;;7.20;;
58496;SDS011;44284;51.310;16.904;2022-11-11T17:22:22;11.77;;;6.82;;
58496;SDS011;44284;51.310;16.904;2022-11-11T17:24:48;12.25;;;6.93;;
58496;SDS011;44284;51.310;16.904;2022-11-11T17:27:14;13.02;;;6.20;;
58496;SDS011;44284;51.310;16.904;2022-11-11T17:29:40;12.65;;;6.15;;
58496;SDS011;44284;51.310;16.904;2022-11-11T17:32:06;12.07;;;6.22;;
58496;SDS011;44284;51.310;16.904;2022-11-11T17:34:32;13.93;;;6.05;;
58496;SDS011;44284;51.310;16.904;2022-11-11T17:36:58;12.68;;;7.22;;
58496;SDS011;44284;51.310;16.904;2022-11-11T17:39:24;13.85;;;7.88;;
58496;SDS011;44284;51.310;16.904;2022-11-11T17:41:50;14.10;;;8.80;;
58496;SDS011;44284;51.310;16.904;2022-11-11T17:44:16;14.77;;;8.13;;
58496;SDS011;44284;51.310;16.904;2022-11-11T17:46:42;14.23;;;7.28;;
58496;SDS011;44284;51.310;16.904;2022-11-11T17:49:09;14.25;;;7.88;;
58496;SDS011;44284;51.310;16.904;2022-11-11T17:51:35;15.07;;;7.40;;
58496;SDS011;44284;51.310;16.904;2022-11-11T17:54:01;11.40;;;6.80;;
58496;SDS011;44284;51.310;16.904;2022-11-11T17:56:27;13.15;;;6.80;;
58496;SDS011;44284;51.310;16.904;2022-11-11T17:58:53;12.57;;;7.20;;
58496;SDS011;44284;51.310;16.904;2022-11-11T18:01:19;11.98;;;7.13;;
58496;SDS011;44284;51.310;16.904;2022-11-11T18:03:45;15.07;;;7.97;;
58496;SDS011;44284;51.310;16.904;2022-11-11T18:06:11;14.75;;;8.77;;
58496;SDS011;44284;51.310;16.904;2022-11-11T18:08:37;13.60;;;8.07;;
58496;SDS011;44284;51.310;16.904;2022-11-11T18:11:05;13.70;;;8.68;;
58496;SDS011;44284;51.310;16.904;2022-11-11T18:13:32;16.20;;;8.07;;
58496;SDS011;44284;51.310;16.904;2022-11-11T18:15:59;13.75;;;7.18;;
58496;SDS011;44284;51.310;16.904;2022-11-11T18:18:26;14.05;;;6.85;;
58496;SDS011;44284;51.310;16.904;2022-11-11T18:20:52;13.52;;;7.00;;
58496;SDS011;44284;51.310;16.904;2022-11-11T18:23:19;9.82;;;5.78;;
58496;SDS011;44284;51.310;16.904;2022-11-11T18:25:45;13.63;;;5.97;;
58496;SDS011;44284;51.310;16.904;2022-11-11T18:28:11;11.73;;;7.03;;
58496;SDS011;44284;51.310;16.904;2022-11-11T18:30:37;13.45;;;7.03;;
58496;SDS011;44284;51.310;16.904;2022-11-11T18:33:03;12.32;;;6.90;;
58496;SDS011;44284;51.310;16.904;2022-11-11T18:35:29;13.98;;;7.47;;
58496;SDS011;44284;51.310;16.904;2022-11-11T18:37:55;12.55;;;7.00;;
58496;SDS011;44284;51.310;16.904;2022-11-11T18:40:21;13.07;;;7.07;;
58496;SDS011;44284;51.310;16.904;2022-11-11T18:42:47;10.07;;;6.32;;
58496;SDS011;44284;51.310;16.904;2022-11-11T18:45:13;13.07;;;6.50;;
58496;SDS011;44284;51.310;16.904;2022-11-11T18:47:39;13.52;;;7.28;;
58496;SDS011;44284;51.310;16.904;2022-11-11T18:50:05;16.08;;;7.78;;
58496;SDS011;44284;51.310;16.904;2022-11-11T18:52:31;14.05;;;7.07;;
58496;SDS011;44284;51.310;16.904;2022-11-11T18:54:57;13.52;;;7.00;;
58496;SDS011;44284;51.310;16.904;2022-11-11T18:57:23;12.98;;;6.65;;
58496;SDS011;44284;51.310;16.904;2022-11-11T18:59:50;12.75;;;6.30;;
58496;SDS011;44284;51.310;16.904;2022-11-11T19:02:16;10.30;;;5.30;;
58496;SDS011;44284;51.310;16.904;2022-11-11T19:04:42;11.55;;;5.95;;
58496;SDS011;44284;51.310;16.904;2022-11-11T19:07:08;9.52;;;5.15;;
58496;SDS011;44284;51.310;16.904;2022-11-11T19:09:34;11.40;;;6.68;;
58496;SDS011;44284;51.310;16.904;2022-11-11T19:12:00;12.10;;;6.45;;
58496;SDS011;44284;51.310;16.904;2022-11-11T19:14:26;10.23;;;5.60;;
58496;SDS011;44284;51.310;16.904;2022-11-11T19:16:52;11.20;;;6.40;;
58496;SDS011;44284;51.310;16.904;2022-11-11T19:19:18;9.70;;;5.63;;
58496;SDS011;44284;51.310;16.904;2022-11-11T19:21:44;9.60;;;5.95;;
58496;SDS011;44284;51.310;16.904;2022-11-11T19:24:10;10.60;;;5.40;;
58496;SDS011;44284;51.310;16.904;2022-11-11T19:26:39;8.25;;;4.88;;
58496;SDS011;44284;51.310;16.904;2022-11-11T19:29:07;7.60;;;4.75;;
58496;SDS011;44284;51.310;16.904;2022-11-11T19:31:35;9.48;;;4.90;;
58496;SDS011;44284;51.310;16.904;2022-11-11T19:34:01;10.00;;;5.15;;
58496;SDS011;44284;51.310;16.904;2022-11-11T19:36:27;8.02;;;4.97;;
58496;SDS011;44284;51.310;16.904;2022-11-11T19:38:55;7.72;;;5.05;;
58496;SDS011;44284;51.310;16.904;2022-11-11T19:41:22;9.88;;;5.30;;
58496;SDS011;44284;51.310;16.904;2022-11-11T19:43:49;11.10;;;5.82;;
58496;SDS011;44284;51.310;16.904;2022-11-11T19:46:17;10.55;;;6.18;;
58496;SDS011;44284;51.310;16.904;2022-11-11T19:48:44;12.32;;;6.40;;
58496;SDS011;44284;51.310;16.904;2022-11-11T19:51:11;12.55;;;5.95;;
58496;SDS011;44284;51.310;16.904;2022-11-11T19:53:38;9.50;;;5.60;;
58496;SDS011;44284;51.310;16.904;2022-11-11T19:56:05;11.70;;;6.07;;
58496;SDS011;44284;51.310;16.904;2022-11-11T19:58:31;11.45;;;6.85;;
58496;SDS011;44284;51.310;16.904;2022-11-11T20:01:05;13.07;;;5.53;;
58496;SDS011;44284;51.310;16.904;2022-11-11T20:03:31;11.90;;;6.43;;
58496;SDS011;44284;51.310;16.904;2022-11-11T20:05:59;9.57;;;6.07;;
58496;SDS011;44284;51.310;16.904;2022-11-11T20:08:25;12.13;;;6.05;;
58496;SDS011;44284;51.310;16.904;2022-11-11T20:10:51;9.77;;;5.85;;
58496;SDS011;44284;51.310;16.904;2022-11-11T20:13:17;10.02;;;5.47;;
58496;SDS011;44284;51.310;16.904;2022-11-11T20:15:43;11.50;;;6.68;;
58496;SDS011;44284;51.310;16.904;2022-11-11T20:18:09;9.90;;;6.65;;
58496;SDS011;44284;51.310;16.904;2022-11-11T20:20:35;10.85;;;6.30;;
58496;SDS011;44284;51.310;16.904;2022-11-11T20:23:05;11.98;;;6.57;;
58496;SDS011;44284;51.310;16.904;2022-11-11T20:25:31;15.65;;;6.80;;
58496;SDS011;44284;51.310;16.904;2022-11-11T20:28:01;11.63;;;6.72;;
58496;SDS011;44284;51.310;16.904;2022-11-11T20:30:27;12.68;;;6.18;;
58496;SDS011;44284;51.310;16.904;2022-11-11T20:32:53;13.70;;;6.88;;
58496;SDS011;44284;51.310;16.904;2022-11-11T20:35:19;9.88;;;5.93;;
58496;SDS011;44284;51.310;16.904;2022-11-11T20:37:45;10.88;;;5.80;;
58496;SDS011;44284;51.310;16.904;2022-11-11T20:40:11;12.05;;;6.40;;
58496;SDS011;44284;51.310;16.904;2022-11-11T20:42:37;11.68;;;6.13;;
58496;SDS011;44284;51.310;16.904;2022-11-11T20:45:03;12.55;;;6.45;;
58496;SDS011;44284;51.310;16.904;2022-11-11T20:47:29;12.73;;;7.15;;
58496;SDS011;44284;51.310;16.904;2022-11-11T20:49:55;12.52;;;6.80;;
58496;SDS011;44284;51.310;16.904;2022-11-11T20:52:21;12.38;;;6.97;;
58496;SDS011;44284;51.310;16.904;2022-11-11T20:54:47;12.57;;;6.82;;
58496;SDS011;44284;51.310;16.904;2022-11-11T20:57:13;13.85;;;7.28;;
58496;SDS011;44284;51.310;16.904;2022-11-11T20:59:40;13.10;;;6.90;;
58496;SDS011;44284;51.310;16.904;2022-11-11T21:02:07;11.45;;;7.20;;
58496;SDS011;44284;51.310;16.904;2022-11-11T21:04:34;11.48;;;6.30;;
58496;SDS011;44284;51.310;16.904;2022-11-11T21:07:00;10.80;;;5.85;;
58496;SDS011;44284;51.310;16.904;2022-11-11T21:09:26;14.25;;;7.25;;
58496;SDS011;44284;51.310;16.904;2022-11-11T21:11:52;11.15;;;5.68;;
58496;SDS011;44284;51.310;16.904;2022-11-11T21:14:18;12.20;;;6.35;;
58496;SDS011;44284;51.310;16.904;2022-11-11T21:16:44;9.65;;;5.35;;
58496;SDS011;44284;51.310;16.904;2022-11-11T21:19:10;9.95;;;5.32;;
58496;SDS011;44284;51.310;16.904;2022-11-11T21:21:36;9.73;;;5.88;;
58496;SDS011;44284;51.310;16.904;2022-11-11T21:24:03;10.15;;;5.95;;
58496;SDS011;44284;51.310;16.904;2022-11-11T21:26:29;12.32;;;5.43;;
58496;SDS011;44284;51.310;16.904;2022-11-11T21:28:56;9.43;;;5.18;;
58496;SDS011;44284;51.310;16.904;2022-11-11T21:31:23;11.75;;;5.82;;
58496;SDS011;44284;51.310;16.904;2022-11-11T21:33:54;10.70;;;5.28;;
58496;SDS011;44284;51.310;16.904;2022-11-11T21:36:20;11.95;;;6.25;;
58496;SDS011;44284;51.310;16.904;2022-11-11T21:38:47;12.88;;;8.23;;
58496;SDS011;44284;51.310;16.904;2022-11-11T21:41:14;12.18;;;8.18;;
58496;SDS011;44284;51.310;16.904;2022-11-11T21:43:40;14.18;;;7.53;;
58496;SDS011;44284;51.310;16.904;2022-11-11T21:46:08;12.00;;;5.85;;
58496;SDS011;44284;51.310;16.904;2022-11-11T21:48:34;12.35;;;7.88;;
58496;SDS011;44284;51.310;16.904;2022-11-11T21:51:01;10.45;;;6.30;;
58496;SDS011;44284;51.310;16.904;2022-11-11T21:53:28;11.00;;;6.10;;
58496;SDS011;44284;51.310;16.904;2022-11-11T21:56:04;9.43;;;5.55;;
58496;SDS011;44284;51.310;16.904;2022-11-11T21:58:30;11.63;;;6.38;;
58496;SDS011;44284;51.310;16.904;2022-11-11T22:01:04;10.77;;;6.53;;
58496;SDS011;44284;51.310;16.904;2022-11-11T22:03:30;12.48;;;5.82;;
58496;SDS011;44284;51.310;16.904;2022-11-11T22:06:06;9.48;;;6.03;;
58496;SDS011;44284;51.310;16.904;2022-11-11T22:08:33;12.00;;;5.82;;
58496;SDS011;44284;51.310;16.904;2022-11-11T22:11:07;9.52;;;5.50;;
58496;SDS011;44284;51.310;16.904;2022-11-11T22:13:33;9.75;;;6.10;;
58496;SDS011;44284;51.310;16.904;2022-11-11T22:16:04;11.75;;;6.05;;
58496;SDS011;44284;51.310;16.904;2022-11-11T22:18:30;11.77;;;6.80;;
58496;SDS011;44284;51.310;16.904;2022-11-11T22:21:04;12.38;;;7.63;;
58496;SDS011;44284;51.310;16.904;2022-11-11T22:23:30;13.07;;;7.13;;
58496;SDS011;44284;51.310;16.904;2022-11-11T22:26:03;13.27;;;7.38;;
58496;SDS011;44284;51.310;16.904;2022-11-11T22:28:29;12.45;;;7.32;;
58496;SDS011;44284;51.310;16.904;2022-11-11T22:31:05;12.00;;;7.93;;
58496;SDS011;44284;51.310;16.904;2022-11-11T22:33:32;16.95;;;8.32;;
58496;SDS011;44284;51.310;16.904;2022-11-11T22:35:58;15.50;;;8.32;;
58496;SDS011;44284;51.310;16.904;2022-11-11T22:38:25;15.05;;;8.70;;
58496;SDS011;44284;51.310;16.904;2022-11-11T22:40:51;14.75;;;8.38;;
58496;SDS011;44284;51.310;16.904;2022-11-11T22:43:17;12.68;;;7.68;;
58496;SDS011;44284;51.310;16.904;2022-11-11T22:45:51;11.93;;;6.32;;
58496;SDS011;44284;51.310;16.904;2022-11-11T22:48:17;13.45;;;6.88;;
58496;SDS011;44284;51.310;16.904;2022-11-11T22:50:45;12.30;;;6.28;;
58496;SDS011;44284;51.310;16.904;2022-11-11T22:53:11;11.63;;;6.63;;
58496;SDS011;44284;51.310;16.904;2022-11-11T22:55:37;11.73;;;6.28;;
58496;SDS011;44284;51.310;16.904;2022-11-11T22:58:03;11.57;;;6.53;;
58496;SDS011;44284;51.310;16.904;2022-11-11T23:00:29;11.68;;;6.18;;
58496;SDS011;44284;51.310;16.904;2022-11-11T23:02:56;9.15;;;6.00;;
58496;SDS011;44284;51.310;16.904;2022-11-11T23:05:23;11.52;;;6.28;;
58496;SDS011;44284;51.310;16.904;2022-11-11T23:07:49;12.43;;;6.07;;
58496;SDS011;44284;51.310;16.904;2022-11-11T23:10:17;11.38;;;6.28;;
58496;SDS011;44284;51.310;16.904;2022-11-11T23:12:43;10.90;;;5.70;;
58496;SDS011;44284;51.310;16.904;2022-11-11T23:15:09;11.32;;;6.15;;
58496;SDS011;44284;51.310;16.904;2022-11-11T23:17:35;15.52;;;7.18;;
58496;SDS011;44284;51.310;16.904;2022-11-11T23:20:01;13.25;;;6.93;;
58496;SDS011;44284;51.310;16.904;2022-11-11T23:22:27;14.02;;;7.20;;
58496;SDS011;44284;51.310;16.904;2022-11-11T23:24:53;13.77;;;7.07;;
58496;SDS011;44284;51.310;16.904;2022-11-11T23:27:20;11.82;;;7.03;;
58496;SDS011;44284;51.310;16.904;2022-11-11T23:29:46;13.65;;;8.13;;
58496;SDS011;44284;51.310;16.904;2022-11-11T23:32:12;13.93;;;7.40;;
58496;SDS011;44284;51.310;16.904;2022-11-11T23:34:38;10.85;;;7.35;;
58496;SDS011;44284;51.310;16.904;2022-11-11T23:37:04;13.38;;;7.07;;
58496;SDS011;44284;51.310;16.904;2022-11-11T23:39:30;10.85;;;6.93;;
58496;SDS011;44284;51.310;16.904;2022-11-11T23:41:56;11.85;;;7.45;;
58496;SDS011;44284;51.310;16.904;2022-11-11T23:44:22;11.20;;;7.35;;
58496;SDS011;44284;51.310;16.904;2022-11-11T23:46:48;12.15;;;5.80;;
58496;SDS011;44284;51.310;16.904;2022-11-11T23:49:14;11.55;;;7.75;;
58496;SDS011;44284;51.310;16.904;2022-11-11T23:51:40;11.13;;;6.75;;
58496;SDS011;44284;51.310;16.904;2022-11-11T23:54:06;13.57;;;7.00;;
58496;SDS011;44284;51.310;16.904;2022-11-11T23:56:32;14.43;;;7.10;;
58496;SDS011;44284;51.310;16.904;2022-11-11T23:58:58;10.82;;;6.53;;
